Time;durP1;ratioP1;P1;durP2;ratioP2;P2;SDS_P1;SDS_P2;PMS_P1;PMS_P2;Temp;Humidity;BMP_temperature;BMP_pressure;BME280_temperature;BME280_humidity;BME280_pressure;Samples;Min_cycle;Max_cycle;Signal;HPM_P1;HPM_P2
2023/05/20 00:00:13;;;;;;;19.92;12.90;;;;;;;14.15;100.00;100257.91;5068525;28;20056;-19
2023/05/20 00:02:38;;;;;;;22.83;13.45;;;;;;;14.28;100.00;100276.41;5068304;28;20032;-20
2023/05/20 00:05:04;;;;;;;23.85;13.73;;;;;;;14.16;100.00;100279.13;5068233;28;20027;-19
2023/05/20 00:07:30;;;;;;;20.83;12.13;;;;;;;14.21;100.00;100287.28;5068042;28;20032;-19
2023/05/20 00:09:56;;;;;;;21.55;11.68;;;;;;;14.09;100.00;100280.31;5068268;28;20028;-19
2023/05/20 00:12:21;;;;;;;17.17;11.00;;;;;;;14.09;100.00;100273.06;5068101;28;20043;-19
2023/05/20 00:14:47;;;;;;;16.27;10.65;;;;;;;14.12;100.00;100277.13;5068002;28;20036;-19
2023/05/20 00:17:12;;;;;;;15.68;9.82;;;;;;;14.15;100.00;100271.31;5067741;28;20028;-19
2023/05/20 00:19:37;;;;;;;13.98;10.25;;;;;;;14.14;100.00;100257.09;5067797;28;20643;-18
2023/05/20 00:22:03;;;;;;;16.50;11.02;;;;;;;14.09;100.00;100267.72;5067987;28;20514;-19
2023/05/20 00:24:29;;;;;;;17.05;12.13;;;;;;;13.99;100.00;100262.94;5067797;28;20032;-19
2023/05/20 00:26:54;;;;;;;24.80;13.82;;;;;;;13.97;100.00;100248.16;5067548;28;20111;-23
2023/05/20 00:29:20;;;;;;;19.50;13.75;;;;;;;14.15;100.00;100258.72;5067863;28;20020;-18
2023/05/20 00:31:46;;;;;;;19.98;12.75;;;;;;;14.05;100.00;100245.91;5067490;28;20047;-20
2023/05/20 00:34:12;;;;;;;25.65;14.80;;;;;;;14.10;100.00;100252.44;5067402;28;20032;-19
2023/05/20 00:36:37;;;;;;;23.05;14.07;;;;;;;14.15;100.00;100247.19;5067574;28;20456;-19
2023/05/20 00:39:03;;;;;;;19.00;12.15;;;;;;;14.17;100.00;100239.72;5067494;28;20017;-19
2023/05/20 00:41:28;;;;;;;17.10;11.18;;;;;;;13.97;100.00;100238.22;5067459;28;20049;-19
2023/05/20 00:43:55;;;;;;;18.13;10.38;;;;;;;13.90;100.00;100239.44;5067371;28;20547;-22
2023/05/20 00:46:22;;;;;;;17.13;10.43;;;;;;;13.78;100.00;100234.09;5067487;28;20032;-19
2023/05/20 00:48:49;;;;;;;16.88;10.80;;;;;;;13.90;100.00;100234.06;5067109;28;20492;-19
2023/05/20 00:51:14;;;;;;;18.45;10.90;;;;;;;13.84;100.00;100239.31;5067276;28;20039;-19
2023/05/20 00:53:40;;;;;;;15.55;10.18;;;;;;;13.68;100.00;100218.59;5066942;28;20052;-19
2023/05/20 00:56:07;;;;;;;17.27;10.52;;;;;;;13.71;100.00;100233.41;5066955;28;20025;-19
2023/05/20 00:58:35;;;;;;;14.18;10.35;;;;;;;13.93;100.00;100250.47;5067116;28;20126;-21
2023/05/20 01:01:01;;;;;;;15.32;10.32;;;;;;;13.86;100.00;100247.13;5066874;28;20043;-19
2023/05/20 01:03:28;;;;;;;16.23;11.38;;;;;;;13.64;100.00;100234.34;5067167;28;20033;-19
2023/05/20 01:05:53;;;;;;;16.85;9.77;;;;;;;14.01;100.00;100252.00;5067248;28;20013;-19
2023/05/20 01:08:20;;;;;;;18.08;11.50;;;;;;;14.20;100.00;100258.00;5066949;28;20438;-19
2023/05/20 01:10:48;;;;;;;22.27;11.10;;;;;;;13.85;100.00;100234.75;5066728;28;20497;-19
2023/05/20 01:13:15;;;;;;;;;;;;;;;13.70;100.00;100247.84;5067108;28;20031;-22
2023/05/20 01:15:43;;;;;;;16.38;10.98;;;;;;;13.54;100.00;100244.81;5066705;28;19916;-19
2023/05/20 01:18:09;;;;;;;16.15;10.13;;;;;;;13.54;100.00;100244.03;5066720;28;20071;-19
2023/05/20 01:20:36;;;;;;;16.10;10.68;;;;;;;13.51;100.00;100229.22;5066728;28;20745;-18
2023/05/20 01:23:03;;;;;;;15.75;10.48;;;;;;;13.76;100.00;100244.25;5066571;28;20218;-21
2023/05/20 01:25:28;;;;;;;17.45;11.38;;;;;;;13.50;100.00;100229.47;5066312;28;20059;-19
2023/05/20 01:27:59;;;;;;;19.35;12.77;;;;;;;13.55;100.00;100235.75;5066564;28;20415;-23
2023/05/20 01:30:40;;;;;;;19.85;12.50;;;;;;;13.70;100.00;100231.78;5066603;28;20192;-21
2023/05/20 01:33:10;;;;;;;20.98;13.95;;;;;;;13.76;100.00;100228.16;5066408;28;20082;-20
2023/05/20 01:35:35;;;;;;;22.10;14.35;;;;;;;13.65;100.00;100229.81;5066394;28;20082;-18
2023/05/20 01:38:04;;;;;;;21.52;13.60;;;;;;;13.48;100.00;100228.88;5066439;28;20020;-19
2023/05/20 01:40:30;;;;;;;25.77;14.82;;;;;;;13.36;100.00;100229.72;5066552;28;20025;-18
2023/05/20 01:42:57;;;;;;;29.60;14.27;;;;;;;13.32;100.00;100233.06;5066396;28;20056;-19
2023/05/20 01:45:24;;;;;;;22.13;13.07;;;;;;;13.18;100.00;100219.88;5066821;28;20028;-19
2023/05/20 01:47:50;;;;;;;19.70;12.95;;;;;;;13.15;100.00;100228.38;5066406;28;20029;-19
2023/05/20 01:50:16;;;;;;;19.67;14.13;;;;;;;13.30;100.00;100232.50;5066188;28;20035;-19
2023/05/20 01:52:41;;;;;;;20.10;13.10;;;;;;;13.23;100.00;100233.38;5065972;28;20048;-19
2023/05/20 01:55:07;;;;;;;20.75;13.27;;;;;;;13.27;100.00;100229.19;5065325;28;20477;-18
2023/05/20 01:57:32;;;;;;;20.52;14.10;;;;;;;13.66;100.00;100229.56;5065922;28;20037;-19
2023/05/20 01:59:58;;;;;;;24.63;15.40;;;;;;;13.62;100.00;100215.00;5066216;28;20032;-19
2023/05/20 02:02:23;;;;;;;25.55;15.73;;;;;;;13.83;100.00;100226.97;5065951;28;20020;-19
2023/05/20 02:04:50;;;;;;;25.00;14.30;;;;;;;13.82;100.00;100224.53;5066475;28;20036;-19
2023/05/20 02:07:20;;;;;;;20.48;12.00;;;;;;;13.82;100.00;100232.56;5065871;28;20040;-19
2023/05/20 02:09:46;;;;;;;19.20;12.43;;;;;;;13.69;100.00;100246.22;5065850;28;20025;-19
2023/05/20 02:12:15;;;;;;;19.90;12.65;;;;;;;13.81;100.00;100244.34;5066120;28;20025;-19
2023/05/20 02:14:46;;;;;;;16.90;11.63;;;;;;;13.74;100.00;100244.47;5065848;28;20083;-18
2023/05/20 02:17:15;;;;;;;21.10;13.18;;;;;;;13.98;100.00;100250.59;5065975;28;20028;-19
2023/05/20 02:19:41;;;;;;;16.83;12.15;;;;;;;13.83;100.00;100251.09;5066040;28;20514;-20
2023/05/20 02:22:07;;;;;;;17.98;11.52;;;;;;;13.81;100.00;100250.53;5065849;28;20119;-19
2023/05/20 02:24:32;;;;;;;17.67;11.55;;;;;;;13.88;100.00;100244.22;5065746;28;20029;-20
2023/05/20 02:26:58;;;;;;;16.90;10.70;;;;;;;13.92;100.00;100248.88;5066000;28;20025;-19
2023/05/20 02:29:24;;;;;;;16.02;11.10;;;;;;;13.92;100.00;100251.56;5066069;28;20436;-19
2023/05/20 02:31:49;;;;;;;16.77;10.93;;;;;;;13.98;100.00;100247.91;5065905;28;20044;-19
2023/05/20 02:34:16;;;;;;;15.90;11.00;;;;;;;14.04;100.00;100256.91;5065804;28;20036;-20
2023/05/20 02:36:42;;;;;;;14.30;10.35;;;;;;;13.85;100.00;100250.84;5065727;28;20127;-18
2023/05/20 02:39:07;;;;;;;19.40;11.50;;;;;;;13.99;100.00;100252.22;5065746;28;20020;-18
2023/05/20 02:41:33;;;;;;;17.30;11.18;;;;;;;13.98;100.00;100247.91;5065911;28;20806;-19
2023/05/20 02:43:59;;;;;;;14.45;11.27;;;;;;;13.84;100.00;100250.03;5065536;28;20514;-20
2023/05/20 02:46:24;;;;;;;17.27;11.48;;;;;;;13.74;100.00;100257.88;5065879;28;20025;-22
2023/05/20 02:48:50;;;;;;;15.50;10.70;;;;;;;13.61;100.00;100250.91;5065862;28;20028;-19
2023/05/20 02:51:15;;;;;;;16.25;10.98;;;;;;;13.59;100.00;100258.34;5065774;28;20454;-18
2023/05/20 02:53:41;;;;;;;16.50;10.90;;;;;;;13.59;100.00;100263.72;5065199;28;20139;-20
2023/05/20 02:56:07;;;;;;;17.10;10.93;;;;;;;13.74;100.00;100255.19;5065720;28;20055;-20
2023/05/20 02:58:34;;;;;;;18.48;10.75;;;;;;;13.80;100.00;100258.81;5047839;28;20031;-19
2023/05/20 03:01:00;;;;;;;17.55;10.70;;;;;;;13.61;100.00;100256.25;5065406;28;20031;-19
2023/05/20 03:03:26;;;;;;;16.83;11.10;;;;;;;13.74;100.00;100259.75;5065699;28;20028;-22
2023/05/20 03:05:52;;;;;;;16.75;10.75;;;;;;;13.74;100.00;100254.38;5065599;28;20021;-19
2023/05/20 03:08:20;;;;;;;17.40;11.70;;;;;;;13.74;100.00;100260.53;5068873;28;20119;-19
2023/05/20 03:10:45;;;;;;;15.65;10.63;;;;;;;13.82;100.00;100265.53;5069199;28;20029;-19
2023/05/20 03:13:11;;;;;;;16.42;10.68;;;;;;;13.60;100.00;100237.72;5068834;28;20086;-19
2023/05/20 03:15:40;;;;;;;17.15;11.10;;;;;;;13.75;100.00;100262.19;5069073;28;20076;-19
2023/05/20 03:18:07;;;;;;;15.07;10.75;;;;;;;13.35;100.00;100262.09;5069134;28;20089;-19
2023/05/20 03:20:37;;;;;;;15.52;10.75;;;;;;;13.20;100.00;100249.94;5068944;28;20032;-20
2023/05/20 03:23:03;;;;;;;27.48;14.75;;;;;;;13.35;100.00;100246.00;5068809;28;20036;-20
2023/05/20 03:25:28;;;;;;;33.75;17.55;;;;;;;13.18;100.00;100256.56;5068822;28;20048;-20
2023/05/20 03:27:54;;;;;;;26.42;14.43;;;;;;;13.44;100.00;100255.31;5068965;28;20106;-20
2023/05/20 03:30:20;;;;;;;33.67;16.65;;;;;;;13.54;100.00;100266.25;5068790;28;20085;-19
2023/05/20 03:32:45;;;;;;;29.40;15.77;;;;;;;13.63;100.00;100251.47;5068546;28;20275;-18
2023/05/20 03:35:11;;;;;;;48.03;24.20;;;;;;;13.51;100.00;100260.56;5068651;28;20715;-19
2023/05/20 03:37:37;;;;;;;28.38;15.82;;;;;;;13.53;100.00;100256.59;5068714;28;20029;-19
2023/05/20 03:40:05;;;;;;;22.42;14.23;;;;;;;13.53;100.00;100258.47;5068971;28;20024;-19
2023/05/20 03:42:34;;;;;;;37.10;18.67;;;;;;;13.69;100.00;100256.94;5068420;28;20074;-19
2023/05/20 03:44:59;;;;;;;23.40;14.30;;;;;;;13.39;100.00;100258.69;5068456;28;20412;-19
2023/05/20 03:47:26;;;;;;;18.88;11.82;;;;;;;13.56;100.00;100258.81;5068928;28;20024;-19
2023/05/20 03:49:51;;;;;;;15.20;11.25;;;;;;;13.73;100.00;100253.56;5068586;28;20142;-19
2023/05/20 03:52:17;;;;;;;16.45;11.93;;;;;;;13.54;100.00;100252.88;5068552;28;20079;-19
2023/05/20 03:54:42;;;;;;;23.83;13.85;;;;;;;13.71;100.00;100262.88;5068238;28;20089;-19
2023/05/20 03:57:09;;;;;;;32.85;17.27;;;;;;;13.76;100.00;100268.34;5068699;28;20033;-18
2023/05/20 03:59:35;;;;;;;24.73;14.20;;;;;;;13.75;100.00;100261.34;5068446;28;20028;-21
2023/05/20 04:02:01;;;;;;;18.17;12.50;;;;;;;13.69;100.00;100259.63;5068240;28;20487;-19
2023/05/20 04:04:27;;;;;;;21.80;13.90;;;;;;;13.78;100.00;100259.03;5068151;28;20556;-22
2023/05/20 04:06:55;;;;;;;18.70;12.02;;;;;;;14.21;100.00;100273.06;5068152;28;20044;-19
2023/05/20 04:09:21;;;;;;;16.95;11.07;;;;;;;14.31;100.00;100269.75;5068507;28;20119;-21
2023/05/20 04:11:46;;;;;;;16.10;11.35;;;;;;;14.37;100.00;100268.81;5068379;28;20059;-18
2023/05/20 04:14:14;;;;;;;17.08;11.60;;;;;;;14.42;100.00;100279.63;5068166;28;20056;-19
2023/05/20 04:16:40;;;;;;;16.70;11.57;;;;;;;14.49;100.00;100284.88;5068086;28;20032;-19
2023/05/20 04:19:06;;;;;;;26.27;14.15;;;;;;;14.57;100.00;100290.69;5067262;28;20040;-19
2023/05/20 04:21:31;;;;;;;21.88;12.82;;;;;;;14.65;100.00;100293.00;5068116;28;20041;-20
2023/05/20 04:23:56;;;;;;;16.00;11.02;;;;;;;14.82;100.00;100287.66;5068033;28;20477;-25
2023/05/20 04:26:22;;;;;;;16.83;10.77;;;;;;;14.79;100.00;100287.31;5067907;28;20025;-19
2023/05/20 04:28:48;;;;;;;18.48;11.38;;;;;;;14.97;100.00;100288.97;5067797;28;20031;-19
2023/05/20 04:31:13;;;;;;;18.05;11.45;;;;;;;15.12;100.00;100291.09;5067672;28;20032;-19
2023/05/20 04:33:39;;;;;;;20.42;11.98;;;;;;;15.24;100.00;100279.25;5067318;28;20086;-19
2023/05/20 04:36:06;;;;;;;16.52;10.80;;;;;;;15.35;100.00;100284.78;5067410;28;20033;-19
2023/05/20 04:38:32;;;;;;;15.18;10.45;;;;;;;15.46;100.00;100286.53;5067666;28;20130;-19
2023/05/20 04:40:59;;;;;;;18.05;10.82;;;;;;;15.42;100.00;100282.72;5067531;28;20474;-21
2023/05/20 04:43:28;;;;;;;15.07;10.38;;;;;;;15.02;100.00;100281.03;5067595;28;20024;-19
2023/05/20 04:45:55;;;;;;;18.80;12.10;;;;;;;15.12;100.00;100297.31;5067498;28;20588;-18
2023/05/20 04:48:21;;;;;;;16.75;11.07;;;;;;;14.93;100.00;100298.56;5067389;28;20050;-18
2023/05/20 04:50:50;;;;;;;19.02;10.95;;;;;;;15.00;100.00;100293.88;5067415;28;20032;-19
2023/05/20 04:53:17;;;;;;;20.98;13.15;;;;;;;15.17;100.00;100297.38;5066853;28;20051;-19
2023/05/20 04:55:44;;;;;;;19.02;11.35;;;;;;;15.24;100.00;100289.97;5067262;28;20090;-19
2023/05/20 04:58:16;;;;;;;18.30;12.55;;;;;;;15.55;100.00;100290.47;5067151;28;20109;-19
2023/05/20 05:00:42;;;;;;;20.83;13.52;;;;;;;15.58;100.00;100297.22;5066940;28;20570;-19
2023/05/20 05:03:08;;;;;;;19.55;13.15;;;;;;;15.84;100.00;100303.81;5066940;28;20036;-19
2023/05/20 05:05:35;;;;;;;21.33;12.77;;;;;;;15.98;100.00;100294.31;5066937;28;20032;-21
2023/05/20 05:08:07;;;;;;;19.52;12.77;;;;;;;15.95;100.00;100299.38;5066859;28;20079;-19
2023/05/20 05:10:33;;;;;;;18.92;11.93;;;;;;;16.05;100.00;100288.75;5066763;28;20033;-18
2023/05/20 05:12:59;;;;;;;23.30;13.30;;;;;;;16.19;100.00;100291.88;5066634;28;20036;-33
2023/05/20 05:15:24;;;;;;;17.10;10.63;;;;;;;16.25;100.00;100293.56;5066754;28;20078;-20
2023/05/20 05:17:50;;;;;;;15.68;10.05;;;;;;;16.44;100.00;100300.25;5066379;28;20029;-19
2023/05/20 05:20:16;;;;;;;19.13;12.45;;;;;;;16.53;100.00;100299.78;5066090;28;20040;-20
2023/05/20 05:22:42;;;;;;;20.75;13.02;;;;;;;16.58;100.00;100307.94;5066626;28;20032;-18
2023/05/20 05:25:08;;;;;;;17.05;10.57;;;;;;;16.73;100.00;100288.44;5066790;28;20028;-19
2023/05/20 05:27:34;;;;;;;16.10;9.80;;;;;;;16.78;100.00;100297.38;5066393;28;20032;-23
2023/05/20 05:30:01;;;;;;;15.60;11.00;;;;;;;16.94;100.00;100300.22;5065845;28;20032;-19
2023/05/20 05:32:27;;;;;;;14.70;9.70;;;;;;;17.07;100.00;100305.22;5066172;28;20031;-19
2023/05/20 05:34:52;;;;;;;13.43;9.50;;;;;;;17.14;100.00;100313.91;5066334;28;20025;-19
2023/05/20 05:37:18;;;;;;;16.30;9.73;;;;;;;17.23;100.00;100314.25;5066320;28;20069;-18
2023/05/20 05:39:43;;;;;;;15.73;9.38;;;;;;;17.19;100.00;100316.63;5066288;28;20055;-19
2023/05/20 05:42:08;;;;;;;13.40;9.48;;;;;;;17.14;99.99;100311.22;5069866;28;20490;-21
2023/05/20 05:44:34;;;;;;;11.98;9.27;;;;;;;16.99;100.00;100303.00;5086475;28;20028;-19
2023/05/20 05:46:59;;;;;;;13.32;9.68;;;;;;;17.08;100.00;100306.84;5086423;28;20107;-23
2023/05/20 05:49:25;;;;;;;13.48;9.63;;;;;;;17.05;100.00;100312.75;5086891;28;20714;-19
2023/05/20 05:51:50;;;;;;;15.80;10.60;;;;;;;17.21;98.78;100319.91;5086106;28;20099;-18
2023/05/20 05:54:16;;;;;;;16.05;10.27;;;;;;;17.22;100.00;100291.06;5085726;28;20374;-21
2023/05/20 05:56:41;;;;;;;15.98;10.50;;;;;;;17.66;100.00;100305.13;5086145;28;20028;-19
2023/05/20 05:59:07;;;;;;;17.67;10.48;;;;;;;17.75;98.48;100318.94;5086107;28;20035;-19
2023/05/20 06:01:32;;;;;;;14.43;9.48;;;;;;;17.57;96.38;100303.16;5086185;28;20104;-19
2023/05/20 06:03:58;;;;;;;15.75;11.07;;;;;;;17.34;100.00;100307.84;5086504;28;20472;-19
2023/05/20 06:06:23;;;;;;;14.45;9.68;;;;;;;17.42;100.00;100310.06;5086160;28;20024;-18
2023/05/20 06:08:49;;;;;;;15.55;10.25;;;;;;;17.40;100.00;100303.31;5086462;28;20043;-19
2023/05/20 06:11:14;;;;;;;14.68;10.70;;;;;;;17.48;100.00;100310.94;5086338;28;20046;-20
2023/05/20 06:13:40;;;;;;;14.27;10.50;;;;;;;17.56;100.00;100321.25;5086397;28;20059;-21
2023/05/20 06:16:05;;;;;;;15.25;10.45;;;;;;;17.50;100.00;100318.78;5086403;28;20103;-19
2023/05/20 06:18:31;;;;;;;16.00;10.70;;;;;;;17.59;100.00;100322.59;5086195;28;20020;-20
2023/05/20 06:20:57;;;;;;;15.85;10.75;;;;;;;17.44;100.00;100307.13;5086241;28;20027;-20
2023/05/20 06:23:23;;;;;;;15.82;10.95;;;;;;;17.64;100.00;100330.75;5086508;28;20044;-19
2023/05/20 06:25:49;;;;;;;16.02;11.10;;;;;;;17.63;100.00;100321.00;5086320;28;20474;-19
2023/05/20 06:28:15;;;;;;;15.77;10.90;;;;;;;17.73;100.00;100301.38;5086121;28;20047;-18
2023/05/20 06:30:41;;;;;;;13.45;9.65;;;;;;;17.87;100.00;100316.06;5085985;28;20414;-19
2023/05/20 06:33:06;;;;;;;14.88;9.57;;;;;;;17.94;100.00;100308.56;5085798;28;20030;-19
2023/05/20 06:35:34;;;;;;;12.63;9.05;;;;;;;17.86;99.52;100312.56;5086138;28;20142;-20
2023/05/20 06:38:00;;;;;;;14.75;8.90;;;;;;;18.02;97.81;100305.38;5068163;28;20047;-21
2023/05/20 06:40:26;;;;;;;11.90;9.07;;;;;;;18.01;99.65;100303.72;5086329;28;20487;-19
2023/05/20 06:42:52;;;;;;;16.00;9.95;;;;;;;18.13;100.00;100300.03;5088735;28;20020;-19
2023/05/20 06:45:17;;;;;;;16.35;9.30;;;;;;;18.15;99.24;100281.69;5089842;28;20024;-21
2023/05/20 06:47:43;;;;;;;13.23;9.25;;;;;;;18.45;98.71;100297.19;5089769;28;20032;-19
2023/05/20 06:50:09;;;;;;;13.57;9.15;;;;;;;18.65;95.49;100291.00;5071745;28;20419;-20
2023/05/20 06:52:35;;;;;;;13.32;8.70;;;;;;;18.65;97.46;100281.03;5089574;28;20518;-18
2023/05/20 06:55:01;;;;;;;12.80;8.20;;;;;;;19.05;94.82;100289.47;5089937;28;20039;-23
2023/05/20 06:57:26;;;;;;;11.35;7.80;;;;;;;19.63;90.51;100306.19;5089899;28;20118;-20
2023/05/20 06:59:51;;;;;;;11.85;8.68;;;;;;;19.83;86.25;100304.56;5089502;28;20462;-18
2023/05/20 07:02:17;;;;;;;17.33;8.73;;;;;;;20.20;86.45;100300.66;5089693;28;20504;-19
2023/05/20 07:04:42;;;;;;;12.88;8.77;;;;;;;20.36;86.13;100304.91;5089395;28;20495;-19
2023/05/20 07:07:08;;;;;;;14.55;9.02;;;;;;;20.52;82.31;100304.84;5089637;28;20039;-20
2023/05/20 07:09:33;;;;;;;10.60;7.10;;;;;;;20.67;80.31;100302.06;5089399;28;20016;-19
2023/05/20 07:11:58;;;;;;;11.15;7.50;;;;;;;20.98;81.10;100291.00;5089677;28;20031;-19
2023/05/20 07:14:24;;;;;;;13.10;7.53;;;;;;;21.32;79.64;100301.06;5089293;28;20028;-19
2023/05/20 07:16:49;;;;;;;11.93;8.13;;;;;;;21.45;77.93;100293.09;5089328;28;20024;-21
2023/05/20 07:19:15;;;;;;;11.23;7.60;;;;;;;21.66;75.86;100301.84;5089394;28;20027;-19
2023/05/20 07:21:40;;;;;;;11.23;7.13;;;;;;;21.58;74.76;100298.94;5089075;28;20115;-19
2023/05/20 07:24:06;;;;;;;12.15;7.57;;;;;;;21.76;73.05;100310.97;5089310;28;20024;-19
2023/05/20 07:26:35;;;;;;;11.18;7.47;;;;;;;22.17;72.87;100321.38;5089703;28;20031;-19
2023/05/20 07:29:00;;;;;;;12.43;7.43;;;;;;;22.24;73.73;100311.00;5089697;28;20028;-18
2023/05/20 07:31:26;;;;;;;10.77;7.25;;;;;;;22.39;65.78;100313.53;5088906;28;20057;-20
2023/05/20 07:33:51;;;;;;;10.55;7.43;;;;;;;22.21;70.21;100306.94;5089075;28;20111;-20
2023/05/20 07:36:17;;;;;;;10.43;6.65;;;;;;;22.38;63.16;100306.47;5089038;28;20463;-20
2023/05/20 07:38:42;;;;;;;11.32;6.25;;;;;;;22.44;57.49;100304.50;5088985;28;20024;-19
2023/05/20 07:41:08;;;;;;;12.02;6.40;;;;;;;22.47;58.61;100298.47;5088915;28;20046;-19
2023/05/20 07:43:33;;;;;;;10.57;6.20;;;;;;;22.78;60.96;100301.56;5088641;28;20092;-22
2023/05/20 07:45:58;;;;;;;10.48;6.63;;;;;;;22.81;55.43;100298.25;5088901;28;20459;-19
2023/05/20 07:48:24;;;;;;;8.98;6.78;;;;;;;23.06;56.70;100302.50;5088825;28;20472;-19
2023/05/20 07:50:49;;;;;;;11.98;6.05;;;;;;;23.36;55.60;100305.84;5088690;28;20791;-19
2023/05/20 07:53:15;;;;;;;11.82;7.20;;;;;;;23.25;56.83;100307.94;5087411;28;20715;-20
2023/05/20 07:55:40;;;;;;;10.48;7.05;;;;;;;23.29;57.48;100305.41;5088489;28;20023;-19
2023/05/20 07:58:05;;;;;;;8.85;6.10;;;;;;;23.84;55.86;100293.81;5088438;28;20035;-20
2023/05/20 08:00:31;;;;;;;9.75;6.25;;;;;;;23.65;53.76;100289.25;5088448;28;20058;-20
2023/05/20 08:02:56;;;;;;;8.68;6.07;;;;;;;23.52;53.97;100295.50;5087940;28;20039;-19
2023/05/20 08:05:22;;;;;;;9.77;6.20;;;;;;;23.66;54.42;100301.75;5088521;28;20016;-20
2023/05/20 08:07:48;;;;;;;11.85;7.57;;;;;;;23.97;52.52;100295.75;5088613;28;20023;-18
2023/05/20 08:10:13;;;;;;;9.55;6.40;;;;;;;23.75;50.86;100298.34;5088512;28;20024;-19
2023/05/20 08:12:39;;;;;;;10.60;6.65;;;;;;;23.49;52.27;100306.97;5088500;28;20477;-19
2023/05/20 08:15:05;;;;;;;11.70;6.78;;;;;;;23.78;51.67;100287.69;5070015;28;20028;-22
2023/05/20 08:17:31;;;;;;;10.75;6.70;;;;;;;24.20;51.32;100295.84;5088651;28;20039;-19
2023/05/20 08:19:57;;;;;;;9.35;6.18;;;;;;;24.48;50.86;100299.34;5088305;28;20024;-19
2023/05/20 08:22:22;;;;;;;10.65;5.72;;;;;;;24.10;49.13;100304.22;5088377;28;20084;-19
2023/05/20 08:24:47;;;;;;;10.55;5.38;;;;;;;24.09;47.09;100297.97;5087858;28;20556;-19
2023/05/20 08:27:13;;;;;;;8.90;6.03;;;;;;;23.88;48.58;100292.13;5088126;28;20012;-18
2023/05/20 08:29:38;;;;;;;7.50;5.80;;;;;;;23.87;47.47;100301.41;5088426;28;20016;-19
2023/05/20 08:32:04;;;;;;;11.52;6.80;;;;;;;23.97;45.04;100290.31;5088341;28;20073;-19
2023/05/20 08:34:30;;;;;;;10.40;6.72;;;;;;;23.94;45.83;100285.44;5088185;28;20031;-19
2023/05/20 08:36:56;;;;;;;9.98;5.57;;;;;;;23.64;43.98;100298.53;5088050;28;20036;-19
2023/05/20 08:39:22;;;;;;;10.82;5.82;;;;;;;23.69;47.13;100300.34;5087931;28;20026;-20
2023/05/20 08:41:47;;;;;;;10.00;5.70;;;;;;;23.50;47.16;100300.44;5087938;28;20024;-20
2023/05/20 08:44:13;;;;;;;12.32;5.70;;;;;;;23.29;48.67;100296.44;5087919;28;20418;-19
2023/05/20 08:46:40;;;;;;;8.90;6.22;;;;;;;23.37;47.71;100304.72;5087893;28;20423;-18
2023/05/20 08:49:06;;;;;;;9.98;5.80;;;;;;;23.37;48.45;100295.75;5087905;28;20486;-23
2023/05/20 08:51:32;;;;;;;10.15;7.18;;;;;;;23.37;48.20;100299.28;5087974;28;20028;-19
2023/05/20 08:54:02;;;;;;;10.85;6.28;;;;;;;23.48;48.70;100294.47;5087468;28;20040;-19
2023/05/20 08:56:27;;;;;;;9.93;6.53;;;;;;;23.29;51.03;100291.00;5087391;28;20027;-19
2023/05/20 08:58:55;;;;;;;9.00;6.10;;;;;;;23.41;50.86;100300.28;5087424;28;20415;-19
2023/05/20 09:01:26;;;;;;;11.82;6.20;;;;;;;22.75;51.90;100283.13;5087670;28;20052;-21
2023/05/20 09:03:51;;;;;;;10.35;6.55;;;;;;;23.10;53.13;100299.22;5087336;28;20028;-19
2023/05/20 09:06:20;;;;;;;9.93;6.45;;;;;;;23.44;50.93;100288.03;5087000;28;20403;-22
2023/05/20 09:08:49;;;;;;;9.95;6.65;;;;;;;23.95;48.61;100295.25;5086945;28;20023;-19
2023/05/20 09:11:14;;;;;;;8.23;5.72;;;;;;;24.10;47.14;100287.88;5087043;28;20478;-19
2023/05/20 09:13:40;;;;;;;9.15;5.95;;;;;;;24.41;48.55;100277.94;5087255;28;20461;-20
2023/05/20 09:16:05;;;;;;;10.75;5.93;;;;;;;24.58;47.05;100279.22;5087171;28;20024;-19
2023/05/20 09:18:31;;;;;;;8.55;6.20;;;;;;;25.32;45.44;100283.50;5086978;28;20036;-19
2023/05/20 09:20:57;;;;;;;7.78;5.88;;;;;;;25.39;43.86;100284.66;5087013;28;20391;-20
2023/05/20 09:23:24;;;;;;;8.77;6.22;;;;;;;26.23;42.32;100282.88;5087225;28;20020;-19
2023/05/20 09:25:53;;;;;;;9.13;6.47;;;;;;;26.01;40.80;100283.81;5087039;28;20650;-18
2023/05/20 09:28:26;;;;;;;15.88;7.47;;;;;;;25.95;41.83;100279.63;5086780;28;20262;-20
2023/05/20 09:30:58;;;;;;;9.45;6.00;;;;;;;26.17;41.97;100275.16;5086693;28;20494;-19
2023/05/20 09:33:30;;;;;;;11.02;6.72;;;;;;;26.35;41.74;100282.28;5087049;28;20063;-19
2023/05/20 09:36:09;;;;;;;8.68;6.43;;;;;;;25.95;39.83;100268.69;5086705;28;20028;-19
2023/05/20 09:38:39;;;;;;;9.50;6.03;;;;;;;26.29;41.53;100289.00;5087057;28;20521;-18
2023/05/20 09:41:10;;;;;;;9.02;5.28;;;;;;;25.41;37.84;100270.69;5087036;28;20031;-20
2023/05/20 09:43:36;;;;;;;7.93;4.60;;;;;;;25.55;38.53;100282.31;5067191;28;20538;-19
2023/05/20 09:46:03;;;;;;;9.02;5.40;;;;;;;24.84;40.13;100282.97;5066457;28;20017;-20
2023/05/20 09:48:29;;;;;;;7.70;4.97;;;;;;;24.44;40.54;100287.44;5066711;28;20043;-19
2023/05/20 09:50:56;;;;;;;12.70;8.35;;;;;;;24.19;40.99;100288.75;5066609;28;20024;-18
2023/05/20 09:53:25;;;;;;;8.18;5.55;;;;;;;23.84;43.12;100285.66;5066001;28;20111;-19
2023/05/20 09:55:51;;;;;;;9.00;5.57;;;;;;;24.08;42.90;100284.66;5066173;28;20119;-19
2023/05/20 09:58:19;;;;;;;9.13;5.65;;;;;;;24.18;42.38;100281.72;5066062;28;20755;-19
2023/05/20 10:00:45;;;;;;;10.32;5.60;;;;;;;24.52;42.72;100277.72;5066416;28;20016;-20
2023/05/20 10:03:11;;;;;;;9.95;5.53;;;;;;;24.24;44.08;100278.56;5065993;28;20063;-21
2023/05/20 10:05:43;;;;;;;8.93;6.10;;;;;;;24.27;42.76;100268.97;5065970;28;20411;-23
2023/05/20 10:08:37;;;;;;;9.75;5.38;;;;;;;24.11;42.53;100278.59;5066170;28;20024;-20
2023/05/20 10:11:18;;;;;;;10.95;5.93;;;;;;;23.91;43.61;100288.81;5061635;28;20037;-20
2023/05/20 10:14:04;;;;;;;6.78;4.90;;;;;;;23.76;43.21;100272.72;5064497;28;20032;-20
2023/05/20 10:16:33;;;;;;;9.50;5.55;;;;;;;23.61;45.93;100282.78;5065056;28;20771;-19
2023/05/20 10:19:25;;;;;;;8.38;4.85;;;;;;;23.47;45.78;100271.06;5065505;28;20506;-20
2023/05/20 10:22:00;;;;;;;6.63;4.50;;;;;;;23.08;45.98;100269.56;5065936;28;20021;-20
2023/05/20 10:24:34;;;;;;;9.32;5.22;;;;;;;23.01;46.56;100269.97;5065397;28;20028;-18
2023/05/20 10:27:07;;;;;;;8.25;5.38;;;;;;;22.79;46.42;100267.84;5066063;28;20080;-19
2023/05/20 10:29:52;;;;;;;10.35;7.03;;;;;;;22.67;47.70;100270.19;5065794;28;20168;-19
2023/05/20 10:32:30;;;;;;;10.95;6.47;;;;;;;22.46;48.93;100256.91;5065717;28;20032;-19
2023/05/20 10:35:04;;;;;;;17.52;14.95;;;;;;;22.48;50.10;100261.25;5065780;28;20108;-20
2023/05/20 10:37:40;;;;;;;20.23;15.00;;;;;;;22.39;49.91;100269.22;5065811;28;20016;-19
2023/05/20 10:40:11;;;;;;;14.32;12.82;;;;;;;22.39;51.45;100259.19;5065814;28;20028;-20
2023/05/20 10:42:37;;;;;;;9.57;5.32;;;;;;;22.63;51.65;100263.72;5065653;28;20052;-19
2023/05/20 10:45:06;;;;;;;9.35;5.13;;;;;;;22.48;51.87;100255.81;5065791;28;20067;-19
2023/05/20 10:47:32;;;;;;;11.43;5.40;;;;;;;22.46;51.68;100250.66;5065753;28;20020;-19
2023/05/20 10:49:58;;;;;;;8.98;5.82;;;;;;;22.77;50.63;100253.72;5065620;28;20033;-19
2023/05/20 10:52:24;;;;;;;9.05;5.57;;;;;;;22.86;51.40;100246.53;5065473;28;20523;-20
2023/05/20 10:54:52;;;;;;;11.13;6.32;;;;;;;22.80;51.36;100253.16;5065712;28;20036;-19
2023/05/20 10:57:17;;;;;;;11.90;8.07;;;;;;;22.87;50.70;100252.75;5065398;28;20029;-19
2023/05/20 10:59:43;;;;;;;9.30;5.82;;;;;;;22.94;48.80;100264.06;5065596;28;20423;-19
2023/05/20 11:02:11;;;;;;;11.00;6.80;;;;;;;23.04;48.85;100250.31;5065588;28;20032;-24
2023/05/20 11:04:37;;;;;;;10.50;5.97;;;;;;;23.30;50.66;100249.09;5066183;28;20090;-19
2023/05/20 11:07:03;;;;;;;10.82;5.53;;;;;;;23.38;48.11;100254.63;5065594;28;20028;-20